DLH9LA EDHI-EDDH
Flight info
| Callsign | DLH9LA |
|---|---|
| Flight time | 0h -19m |
| Altitude | 15000 |
| Route | AMLUH1W AMLUH DCT RARUP RARUP3P |
| Aircraft | A359/H-SDE2E3GHIJ3J4J5LM1ORWXY/LB1D1 |
Departure
| Time | 2026-04-22 13:51 |
|---|---|
| Airport | Hamburg-Finkenwerder Airport (EDHI) |
Arrival
| Time | 2026-04-22 13:32 |
|---|---|
| Airport | Hamburg Helmut Schmidt Airport (EDDH) |
| Time | Latitude | Longitude | Altitude | Speed | Heading |
|---|---|---|---|---|---|
| 2026-04-22 13:31 | 53.53127 | 9.83545 | 28 ft | 0 kts | 207° |
| 2026-04-22 13:41 | 53.53132 | 9.83549 | 28 ft | 1 kts | 207° |
| 2026-04-22 13:41 | 53.53141 | 9.83557 | 27 ft | 1 kts | 207° |
| 2026-04-22 13:42 | 53.53145 | 9.83561 | 27 ft | 0 kts | 207° |
| 2026-04-22 13:42 | 53.53157 | 9.83571 | 27 ft | 3 kts | 207° |
| 2026-04-22 13:42 | 53.53173 | 9.83585 | 27 ft | 3 kts | 207° |
| 2026-04-22 13:43 | 53.53188 | 9.83601 | 27 ft | 3 kts | 235° |
| 2026-04-22 13:43 | 53.53191 | 9.83622 | 25 ft | 3 kts | 302° |
| 2026-04-22 13:43 | 53.53193 | 9.83616 | 25 ft | 0 kts | 295° |
| 2026-04-22 13:45 | 53.53204 | 9.83574 | 27 ft | 7 kts | 294° |
| 2026-04-22 13:45 | 53.53232 | 9.83480 | 28 ft | 10 kts | 306° |
| 2026-04-22 13:45 | 53.53300 | 9.83422 | 28 ft | 12 kts | 346° |
| 2026-04-22 13:46 | 53.53319 | 9.83415 | 28 ft | 0 kts | 346° |
| 2026-04-22 13:47 | 53.53327 | 9.83411 | 28 ft | 7 kts | 346° |
| 2026-04-22 13:47 | 53.53395 | 9.83387 | 28 ft | 12 kts | 348° |
| 2026-04-22 13:47 | 53.53465 | 9.83412 | 27 ft | 10 kts | 46° |
| 2026-04-22 13:48 | 53.53516 | 9.83519 | 27 ft | 15 kts | 51° |
| 2026-04-22 13:48 | 53.53592 | 9.83682 | 27 ft | 21 kts | 52° |
| 2026-04-22 13:48 | 53.53693 | 9.83897 | 27 ft | 26 kts | 51° |
| 2026-04-22 13:48 | 53.53811 | 9.84145 | 29 ft | 28 kts | 51° |
| 2026-04-22 13:49 | 53.53930 | 9.84399 | 30 ft | 29 kts | 52° |
| 2026-04-22 13:49 | 53.54059 | 9.84673 | 29 ft | 31 kts | 51° |
| 2026-04-22 13:49 | 53.54178 | 9.84916 | 30 ft | 24 kts | 44° |
| 2026-04-22 13:49 | 53.54271 | 9.84998 | 31 ft | 14 kts | 47° |
| 2026-04-22 13:50 | 53.54302 | 9.85075 | 32 ft | 6 kts | 82° |
| 2026-04-22 13:50 | 53.54281 | 9.85097 | 33 ft | 4 kts | 174° |
| 2026-04-22 13:50 | 53.54250 | 9.85065 | 32 ft | 8 kts | 222° |
| 2026-04-22 13:50 | 53.54164 | 9.84897 | 30 ft | 50 kts | 231° |
| 2026-04-22 13:51 | 53.53783 | 9.84084 | 29 ft | 125 kts | 231° |
| 2026-04-22 13:51 | 53.53114 | 9.82645 | 108 ft | 181 kts | 232° |
| 2026-04-22 13:51 | 53.52279 | 9.80852 | 640 ft | 203 kts | 232° |
| 2026-04-22 13:51 | 53.51420 | 9.79024 | 1536 ft | 200 kts | 232° |
| 2026-04-22 13:52 | 53.50517 | 9.77122 | 1999 ft | 216 kts | 232° |